Time;durP1;ratioP1;P1;durP2;ratioP2;P2;SDS_P1;SDS_P2;PMS_P1;PMS_P2;Temp;Humidity;BMP_temperature;BMP_pressure;BME280_temperature;BME280_humidity;BME280_pressure;Samples;Min_cycle;Max_cycle;Signal;HPM_P1;HPM_P2
2022/06/12 00:02:03;;;;;;;3.15;2.95;;;;;;;17.08;57.20;101343.41;5054152;28;20029;-23
2022/06/12 00:04:28;;;;;;;3.80;3.50;;;;;;;17.05;57.60;101339.88;5079254;28;20074;-23
2022/06/12 00:06:54;;;;;;;4.70;3.30;;;;;;;17.05;57.72;101342.56;5076664;28;20364;-23
2022/06/12 00:09:19;;;;;;;3.35;3.15;;;;;;;17.01;57.86;101343.50;5071303;28;20128;-23
2022/06/12 00:11:45;;;;;;;3.05;2.85;;;;;;;17.03;58.10;101347.03;5080117;28;20063;-23
2022/06/12 00:14:12;;;;;;;3.40;3.20;;;;;;;16.97;57.98;101344.50;5081435;28;20044;-23
2022/06/12 00:16:41;;;;;;;3.58;3.28;;;;;;;17.00;58.01;101340.88;5058265;28;20036;-23
2022/06/12 00:19:07;;;;;;;3.63;3.33;;;;;;;16.94;57.93;101347.25;5079661;28;20032;-23
2022/06/12 00:21:33;;;;;;;3.85;3.50;;;;;;;16.94;57.89;101347.25;5076562;28;20051;-23
2022/06/12 00:24:02;;;;;;;3.55;3.25;;;;;;;16.87;58.16;101343.88;5076947;28;20028;-23
2022/06/12 00:26:35;;;;;;;3.22;3.00;;;;;;;16.87;57.68;101343.88;5077046;28;20036;-23
2022/06/12 00:29:08;;;;;;;3.35;3.13;;;;;;;16.85;57.97;101342.16;5078978;28;20077;-23
2022/06/12 00:31:35;;;;;;;3.83;3.35;;;;;;;16.84;58.15;101337.75;5051340;28;20032;-23
2022/06/12 00:34:01;;;;;;;3.20;3.00;;;;;;;16.85;58.03;101337.72;5081148;28;20024;-23
2022/06/12 00:36:27;;;;;;;3.45;3.22;;;;;;;16.80;57.96;101324.50;5081893;28;20814;-23
2022/06/12 00:38:52;;;;;;;3.50;3.20;;;;;;;16.82;58.23;101326.25;5090193;28;20023;-23
2022/06/12 00:41:17;;;;;;;3.95;3.65;;;;;;;16.82;58.04;101321.81;5075811;28;20028;-23
2022/06/12 00:43:43;;;;;;;3.92;3.60;;;;;;;16.83;58.37;101330.66;5087826;28;20032;-23
2022/06/12 00:46:41;;;;;;;4.53;4.10;;;;;;;16.76;58.58;101328.16;5087960;28;20519;-23
2022/06/12 00:49:20;;;;;;;3.60;3.30;;;;;;;16.74;58.67;101321.13;5076640;28;20403;-22
2022/06/12 00:51:48;;;;;;;3.95;3.60;;;;;;;16.71;58.68;101316.75;5053588;28;20032;-23
2022/06/12 00:54:14;;;;;;;3.95;3.65;;;;;;;16.68;58.53;101319.50;5079129;28;20020;-23
2022/06/12 00:56:47;;;;;;;4.03;3.72;;;;;;;16.65;58.53;101308.91;5076570;28;20039;-23
2022/06/12 00:59:16;;;;;;;3.80;3.50;;;;;;;16.64;58.33;101318.66;5079865;28;20028;-23
2022/06/12 01:01:45;;;;;;;3.60;3.40;;;;;;;16.64;58.62;101321.34;5079083;28;20033;-23
2022/06/12 01:06:58;;;;;;;3.08;2.88;;;;;;;16.63;58.68;101326.69;5062384;28;20078;-23
2022/06/12 01:09:28;;;;;;;4.07;3.70;;;;;;;16.58;58.79;101325.94;5067225;28;20038;-23
2022/06/12 01:11:56;;;;;;;3.90;3.60;;;;;;;16.54;58.67;101331.34;5067183;28;20052;-23
2022/06/12 01:14:27;;;;;;;3.80;3.50;;;;;;;16.54;58.56;101328.66;5035914;28;20028;-23
2022/06/12 01:16:56;;;;;;;4.45;3.67;;;;;;;16.49;58.34;101325.25;5064907;28;20119;-24
2022/06/12 01:19:32;;;;;;;3.47;3.28;;;;;;;16.50;58.62;101321.66;5065858;28;20064;-24
2022/06/12 01:22:31;;;;;;;4.00;3.70;;;;;;;16.47;58.61;101321.75;5077886;28;20099;-24
2022/06/12 01:25:18;;;;;;;3.42;3.20;;;;;;;16.44;58.82;101311.16;5075680;28;20399;-24
2022/06/12 01:27:58;;;;;;;4.40;4.00;;;;;;;16.40;58.66;101309.47;5053118;28;20063;-24
2022/06/12 01:30:33;;;;;;;4.10;3.70;;;;;;;16.41;58.80;101317.44;5063022;28;20383;-24
2022/06/12 01:33:10;;;;;;;4.10;3.70;;;;;;;16.35;58.87;101324.69;5077464;28;20033;-24
2022/06/12 01:35:50;;;;;;;3.50;3.30;;;;;;;16.33;58.96;101313.19;5082936;28;20071;-24
2022/06/12 01:38:29;;;;;;;3.53;3.25;;;;;;;16.32;58.81;101309.69;5086005;28;20027;-24
2022/06/12 01:41:03;;;;;;;3.80;3.50;;;;;;;16.25;58.72;101321.38;5056918;28;20111;-24
2022/06/12 01:43:44;;;;;;;3.85;3.55;;;;;;;16.23;59.02;101308.09;5059275;28;20032;-24
2022/06/12 01:46:13;;;;;;;3.72;3.42;;;;;;;16.21;58.79;101301.91;5067886;28;20046;-24
2022/06/12 01:48:46;;;;;;;4.03;3.72;;;;;;;16.16;58.84;101301.16;5064765;28;20323;-24
2022/06/12 01:51:23;;;;;;;3.85;3.55;;;;;;;16.16;59.12;101301.16;5059890;28;20036;-24
2022/06/12 01:53:59;;;;;;;4.03;3.72;;;;;;;16.15;59.24;101299.41;5074804;28;20126;-22
2022/06/12 01:56:32;;;;;;;3.83;3.53;;;;;;;16.10;59.17;101290.63;5067040;28;20510;-23
2022/06/12 01:59:18;;;;;;;4.18;3.78;;;;;;;16.10;59.16;101299.50;5038862;28;20035;-22
2022/06/12 02:01:51;;;;;;;4.43;4.03;;;;;;;16.12;59.35;101303.03;5063557;28;20032;-23
2022/06/12 02:04:26;;;;;;;3.80;3.50;;;;;;;16.09;59.17;101297.75;5059423;28;20503;-23
2022/06/12 02:07:13;;;;;;;4.18;3.83;;;;;;;16.14;59.11;101305.66;5079284;28;20040;-23
2022/06/12 02:09:42;;;;;;;4.43;4.03;;;;;;;16.11;59.37;101341.16;5081556;28;20058;-23
2022/06/12 02:15:17;;;;;;;5.47;4.18;;;;;;;16.09;59.89;101327.03;5077301;28;20067;-23
2022/06/12 02:18:10;;;;;;;6.05;4.20;;;;;;;16.08;59.44;101313.75;5055636;28;20029;-23
2022/06/12 02:20:40;;;;;;;4.13;3.83;;;;;;;16.06;60.11;101297.81;5056015;28;20121;-23
2022/06/12 02:23:10;;;;;;;4.03;3.60;;;;;;;16.06;59.55;101292.50;5073965;28;20020;-23
2022/06/12 02:25:39;;;;;;;4.82;3.70;;;;;;;16.09;59.66;101289.78;5060864;28;20024;-23
2022/06/12 02:28:12;;;;;;;4.45;4.00;;;;;;;16.05;59.83;101285.44;5061635;28;20142;-23
2022/06/12 02:30:42;;;;;;;4.10;3.80;;;;;;;16.07;60.20;101282.75;5077464;28;20427;-23
2022/06/12 02:33:17;;;;;;;4.53;4.20;;;;;;;16.08;60.42;101268.53;5062877;28;20567;-23
2022/06/12 02:35:53;;;;;;;7.68;4.10;;;;;;;16.06;60.31;101267.66;5061418;28;20508;-23
2022/06/12 02:38:27;;;;;;;4.10;3.80;;;;;;;16.05;60.28;101265.94;5059420;28;20487;-23
2022/06/12 02:41:00;;;;;;;4.93;3.83;;;;;;;16.03;60.59;101258.88;5050142;28;20473;-23
2022/06/12 02:43:28;;;;;;;4.35;3.95;;;;;;;16.07;60.38;101254.34;5057074;28;20031;-23
2022/06/12 02:45:58;;;;;;;4.60;4.10;;;;;;;16.08;61.39;101245.47;5047867;28;20512;-23
2022/06/12 02:48:25;;;;;;;4.70;4.25;;;;;;;16.07;60.94;101242.84;5061908;28;20066;-23
2022/06/12 02:51:12;;;;;;;4.53;4.13;;;;;;;16.07;60.87;101242.84;5058856;28;20589;-23
2022/06/12 02:53:50;;;;;;;4.57;4.15;;;;;;;16.06;61.02;101235.75;5066757;28;20028;-23
2022/06/12 02:56:31;;;;;;;4.68;4.28;;;;;;;16.06;60.93;101241.94;5057020;28;20032;-23
2022/06/12 02:59:08;;;;;;;6.50;4.90;;;;;;;16.08;61.52;101239.25;5073450;28;20024;-23
2022/06/12 03:01:45;;;;;;;4.85;4.45;;;;;;;16.05;60.66;101240.22;5055721;28;20491;-23
2022/06/12 03:04:35;;;;;;;4.70;4.20;;;;;;;16.07;60.61;101246.34;5060200;28;20300;-23
2022/06/12 03:07:00;;;;;;;4.43;4.15;;;;;;;16.08;60.81;101242.81;5061953;28;20059;-23
2022/06/12 03:09:26;;;;;;;4.90;4.50;;;;;;;16.07;60.74;101243.69;5058498;28;20055;-23
2022/06/12 03:11:54;;;;;;;5.03;4.53;;;;;;;16.09;60.80;101252.53;5082598;28;20099;-23
2022/06/12 03:14:22;;;;;;;4.70;4.30;;;;;;;16.09;61.54;101256.97;5056470;28;20493;-23
2022/06/12 03:16:47;;;;;;;6.03;4.57;;;;;;;16.09;61.69;101256.97;5052694;28;20146;-23
2022/06/12 03:19:17;;;;;;;5.32;4.82;;;;;;;16.08;61.76;101265.88;5043731;28;20534;-23
2022/06/12 03:21:54;;;;;;;4.50;4.15;;;;;;;16.13;63.11;101271.94;5078599;28;20020;-23
2022/06/12 03:24:29;;;;;;;5.13;4.63;;;;;;;16.13;62.22;101290.56;5074973;28;20036;-23
2022/06/12 03:27:18;;;;;;;4.53;4.22;;;;;;;16.14;62.30;101303.00;5079675;28;20039;-23
2022/06/12 03:30:09;;;;;;;4.47;4.18;;;;;;;16.15;62.44;101310.06;5059715;28;20608;-23
2022/06/12 03:33:07;;;;;;;4.93;4.40;;;;;;;16.15;62.71;101304.72;5072382;28;20504;-23
2022/06/12 03:35:53;;;;;;;4.93;4.25;;;;;;;16.17;62.54;101297.56;5059124;28;20473;-23
2022/06/12 03:38:31;;;;;;;4.28;3.97;;;;;;;16.14;62.11;101284.38;5072490;28;20036;-23
2022/06/12 03:41:26;;;;;;;5.43;4.95;;;;;;;16.10;62.46;101270.25;5074275;28;20028;-23
2022/06/12 03:44:24;;;;;;;4.53;4.13;;;;;;;16.13;62.05;101274.59;5058086;28;20024;-23
2022/06/12 03:46:57;;;;;;;4.55;4.25;;;;;;;16.12;62.83;101272.88;5073241;28;20039;-23
2022/06/12 03:49:31;;;;;;;5.60;5.10;;;;;;;16.15;63.98;101270.13;5060927;28;20025;-22
2022/06/12 03:52:13;;;;;;;4.57;4.18;;;;;;;16.15;63.12;101256.84;5058969;28;20028;-22
2022/06/12 03:55:06;;;;;;;4.93;4.05;;;;;;;16.13;62.60;101250.66;5055161;28;20934;-22
2022/06/12 03:57:53;;;;;;;4.88;3.95;;;;;;;16.17;62.67;101262.97;5081973;28;20044;-23
2022/06/12 04:00:27;;;;;;;7.88;4.85;;;;;;;16.19;62.73;101263.84;5079728;28;20040;-23
2022/06/12 04:03:20;;;;;;;4.47;3.95;;;;;;;16.20;63.33;101254.94;5081324;28;20106;-22
2022/06/12 04:05:50;;;;;;;4.53;4.20;;;;;;;16.20;62.36;101257.59;5060799;28;20502;-23
2022/06/12 04:08:20;;;;;;;4.18;3.88;;;;;;;16.21;62.26;101251.34;5060107;28;20032;-23
2022/06/12 04:10:47;;;;;;;4.20;3.90;;;;;;;16.22;61.90;101252.25;5077955;28;20061;-23
2022/06/12 04:13:14;;;;;;;3.50;3.30;;;;;;;16.23;62.41;101254.88;5058319;28;20391;-23
2022/06/12 04:15:43;;;;;;;3.72;3.53;;;;;;;16.24;62.46;101261.06;5062150;28;20025;-22
2022/06/12 04:18:09;;;;;;;3.97;3.67;;;;;;;16.24;62.35;101261.94;5087700;28;20571;-23
2022/06/12 04:20:37;;;;;;;4.10;3.72;;;;;;;16.26;62.26;101270.75;5061509;28;20028;-23
2022/06/12 04:23:10;;;;;;;4.25;3.80;;;;;;;16.24;65.03;101283.22;5081462;28;20016;-23
2022/06/12 04:25:50;;;;;;;3.72;3.50;;;;;;;16.26;64.46;101291.16;5068023;28;20032;-22
2022/06/12 04:28:41;;;;;;;5.53;3.80;;;;;;;16.28;63.95;101295.53;5079348;28;20020;-22
2022/06/12 04:31:15;;;;;;;4.35;4.05;;;;;;;16.29;64.38;101288.44;5063964;28;20707;-24
2022/06/12 04:34:09;;;;;;;4.38;4.07;;;;;;;16.33;64.42;101291.91;5063889;28;20043;-22
2022/06/12 04:36:35;;;;;;;4.05;3.70;;;;;;;16.34;64.03;101291.00;5077908;28;20052;-23
2022/06/12 04:39:01;;;;;;;4.43;3.88;;;;;;;16.34;64.11;101301.66;5067304;28;20048;-23
2022/06/12 04:41:29;;;;;;;4.00;3.63;;;;;;;16.35;63.72;101306.94;5079403;28;20571;-23
2022/06/12 04:43:55;;;;;;;4.32;3.92;;;;;;;16.34;63.43;101310.50;5077303;28;20084;-23
2022/06/12 04:46:21;;;;;;;4.35;3.97;;;;;;;16.33;63.99;101303.44;5065386;28;20502;-23
2022/06/12 04:48:48;;;;;;;4.53;4.03;;;;;;;16.34;63.11;101304.31;5067675;28;20987;-22
2022/06/12 04:51:14;;;;;;;3.67;3.33;;;;;;;16.36;63.06;101303.38;5060978;28;20089;-22
2022/06/12 04:53:40;;;;;;;3.67;3.38;;;;;;;16.39;65.02;101315.72;5062726;28;20480;-22
2022/06/12 04:56:06;;;;;;;4.00;3.70;;;;;;;16.41;63.25;101316.56;5080953;28;20028;-22
2022/06/12 04:58:32;;;;;;;4.00;3.70;;;;;;;16.48;62.61;101310.19;5066379;28;20039;-22
2022/06/12 05:00:57;;;;;;;3.90;3.60;;;;;;;16.49;62.64;101309.28;5077825;28;20415;-22
2022/06/12 05:03:23;;;;;;;3.55;3.35;;;;;;;16.56;65.98;101312.66;5077698;28;20059;-22
2022/06/12 05:05:48;;;;;;;4.00;3.60;;;;;;;16.61;64.61;101304.56;5062825;28;20107;-24
2022/06/12 05:08:15;;;;;;;4.43;4.03;;;;;;;16.65;64.74;101308.91;5077455;28;20021;-23
2022/06/12 05:10:41;;;;;;;5.10;3.40;;;;;;;16.70;65.53;101306.13;5081377;28;20025;-22
2022/06/12 05:13:06;;;;;;;4.15;3.75;;;;;;;16.73;66.33;101306.91;5080544;28;20024;-22
2022/06/12 05:15:32;;;;;;;4.57;4.18;;;;;;;16.76;65.80;101316.63;5078656;28;20062;-22
2022/06/12 05:17:58;;;;;;;4.47;4.07;;;;;;;16.82;66.29;101321.81;5084542;28;20447;-22
2022/06/12 05:20:28;;;;;;;4.00;3.70;;;;;;;16.84;66.46;101314.63;5072111;28;20024;-23
2022/06/12 05:22:54;;;;;;;3.95;3.65;;;;;;;16.89;66.33;101312.75;5057341;28;20039;-23
2022/06/12 05:25:20;;;;;;;4.45;4.07;;;;;;;16.90;67.37;101311.81;5065047;28;20024;-22
2022/06/12 05:27:47;;;;;;;3.95;3.75;;;;;;;16.97;64.52;101320.53;5084756;28;20400;-22
2022/06/12 05:30:15;;;;;;;4.32;3.85;;;;;;;17.02;63.84;101318.63;5078546;28;20043;-22
2022/06/12 05:32:41;;;;;;;3.92;3.63;;;;;;;17.05;65.54;101315.91;5079678;28;20038;-22
2022/06/12 05:35:07;;;;;;;4.75;3.75;;;;;;;17.12;63.23;101313.09;5078410;28;20054;-22
2022/06/12 05:37:34;;;;;;;4.43;4.00;;;;;;;17.16;64.83;101317.41;5081620;28;20499;-22
2022/06/12 05:39:59;;;;;;;4.60;4.22;;;;;;;17.22;64.29;101314.59;5086584;28;20035;-22
2022/06/12 05:42:24;;;;;;;4.30;3.90;;;;;;;17.31;63.99;101308.16;5075646;28;20024;-23
2022/06/12 05:44:50;;;;;;;4.68;4.28;;;;;;;17.34;65.59;101308.03;5060553;28;20013;-23
2022/06/12 05:47:15;;;;;;;4.57;3.90;;;;;;;17.42;65.22;101315.84;5079556;28;20033;-23
2022/06/12 05:49:42;;;;;;;4.50;4.05;;;;;;;17.48;66.17;101314.81;5082487;28;20818;-23
2022/06/12 05:52:08;;;;;;;4.82;4.43;;;;;;;17.53;65.83;101312.88;5074610;28;20024;-22
2022/06/12 05:54:33;;;;;;;4.20;3.67;;;;;;;17.64;64.33;101304.59;5040989;28;20102;-23
2022/06/12 05:56:59;;;;;;;4.82;4.38;;;;;;;17.70;64.90;101310.59;5062254;28;20035;-23
2022/06/12 05:59:24;;;;;;;4.05;3.75;;;;;;;17.79;64.05;101306.81;5087520;28;20028;-23
2022/06/12 06:01:50;;;;;;;4.43;4.03;;;;;;;17.87;64.19;101305.69;5061844;28;20073;-22
2022/06/12 06:04:16;;;;;;;4.30;3.90;;;;;;;17.97;63.97;101307.16;5077091;28;20051;-23
2022/06/12 06:06:45;;;;;;;5.07;4.68;;;;;;;18.00;65.31;101301.72;5083169;28;20049;-23
2022/06/12 06:09:12;;;;;;;5.13;4.72;;;;;;;18.05;66.05;101299.81;5046874;28;20040;-22
2022/06/12 06:11:38;;;;;;;4.25;3.95;;;;;;;18.11;65.63;101297.91;5067934;28;20035;-23
2022/06/12 06:14:04;;;;;;;4.97;4.55;;;;;;;18.21;65.00;101286.03;5062167;28;20024;-22
2022/06/12 06:16:30;;;;;;;6.03;4.65;;;;;;;18.34;65.27;101291.81;5082767;28;20066;-22
2022/06/12 06:18:56;;;;;;;4.28;3.63;;;;;;;18.44;64.91;101284.41;5080397;28;20604;-23
2022/06/12 06:21:21;;;;;;;4.15;3.78;;;;;;;18.53;64.39;101277.88;5080364;28;20553;-22
2022/06/12 06:23:47;;;;;;;4.70;4.28;;;;;;;18.65;64.28;101282.81;5079424;28;20446;-23
2022/06/12 06:26:12;;;;;;;5.07;4.50;;;;;;;18.73;63.70;101277.22;5077694;28;20497;-23
2022/06/12 06:28:39;;;;;;;4.93;4.50;;;;;;;18.81;63.36;101283.16;5050183;28;20111;-23
2022/06/12 06:31:05;;;;;;;4.10;3.80;;;;;;;18.87;64.25;101286.56;5087258;28;20020;-22
2022/06/12 06:33:31;;;;;;;5.05;4.13;;;;;;;18.99;64.00;101286.13;5080875;28;20035;-22
2022/06/12 06:35:57;;;;;;;3.70;3.38;;;;;;;19.13;63.44;101283.00;5060156;28;20387;-22
2022/06/12 06:38:22;;;;;;;5.00;4.15;;;;;;;19.24;63.70;101285.28;5059829;28;20024;-22
2022/06/12 06:40:47;;;;;;;4.10;3.70;;;;;;;19.35;63.12;101288.44;5077203;28;20115;-22
2022/06/12 06:43:13;;;;;;;4.13;3.22;;;;;;;19.48;62.31;101293.38;5055109;28;20491;-22
2022/06/12 06:48:24;;;;;;;3.40;3.10;;;;;;;19.64;62.59;101293.66;5066676;28;20038;-22
2022/06/12 06:50:50;;;;;;;3.75;3.35;;;;;;;19.71;62.86;101292.50;5077752;28;20154;-23
2022/06/12 06:53:15;;;;;;;3.75;3.40;;;;;;;19.84;62.38;101300.94;5061235;28;20493;-22
2022/06/12 06:55:41;;;;;;;3.60;3.30;;;;;;;19.94;62.91;101296.09;5059262;28;20039;-22
2022/06/12 06:58:09;;;;;;;4.00;3.70;;;;;;;20.05;62.38;101290.38;5084486;28;20055;-23
2022/06/12 07:00:35;;;;;;;3.28;2.97;;;;;;;20.20;62.19;101288.88;5061247;28;20035;-23
2022/06/12 07:03:01;;;;;;;3.67;3.38;;;;;;;20.28;62.33;101287.69;5062819;28;20035;-23
2022/06/12 07:05:29;;;;;;;5.20;3.13;;;;;;;20.37;61.56;101280.16;5062080;28;20025;-23
2022/06/12 07:07:55;;;;;;;3.72;3.03;;;;;;;20.47;62.02;101286.00;5078340;28;20016;-23
2022/06/12 07:10:23;;;;;;;3.33;2.80;;;;;;;20.60;61.71;101286.38;5076976;28;20033;-23
2022/06/12 07:12:49;;;;;;;3.10;2.80;;;;;;;20.70;61.82;101288.66;5057952;28;20012;-23
2022/06/12 07:15:15;;;;;;;3.45;3.15;;;;;;;20.82;61.57;101293.50;5077912;28;20507;-23
2022/06/12 07:17:41;;;;;;;3.15;2.70;;;;;;;20.95;61.19;101293.91;5077010;28;20192;-23
2022/06/12 07:20:08;;;;;;;3.10;2.90;;;;;;;21.07;61.08;101287.09;5078558;28;20388;-23
2022/06/12 07:22:35;;;;;;;5.13;2.80;;;;;;;21.18;60.91;101293.81;5048545;28;20038;-24
2022/06/12 07:25:00;;;;;;;4.50;3.55;;;;;;;21.30;60.94;101297.78;5079611;28;20068;-23
2022/06/12 07:27:26;;;;;;;2.97;2.45;;;;;;;21.44;60.60;101310.56;5080104;28;20472;-23
2022/06/12 07:29:51;;;;;;;3.60;3.25;;;;;;;21.54;60.10;101307.38;5060734;28;20032;-23
2022/06/12 07:32:16;;;;;;;3.50;3.00;;;;;;;21.61;59.91;101299.06;5059959;28;20040;-23
2022/06/12 07:34:42;;;;;;;3.28;2.97;;;;;;;21.68;59.95;101297.84;5080189;28;20102;-23
2022/06/12 07:37:07;;;;;;;3.58;3.25;;;;;;;21.81;59.82;101308.03;5077048;28;20113;-23
2022/06/12 07:39:33;;;;;;;2.88;2.67;;;;;;;21.92;59.60;101308.41;5064457;28;20166;-23
2022/06/12 07:41:59;;;;;;;3.03;2.75;;;;;;;22.05;59.34;101311.38;5074172;28;20029;-23
2022/06/12 07:44:26;;;;;;;2.95;2.58;;;;;;;22.20;59.57;101325.03;5076958;28;20176;-23
2022/06/12 07:46:54;;;;;;;2.92;2.47;;;;;;;22.33;59.47;101323.47;5077990;28;20607;-23
2022/06/12 07:49:20;;;;;;;2.88;2.65;;;;;;;22.46;59.29;101318.38;5078966;28;20469;-23
2022/06/12 07:51:46;;;;;;;3.08;2.75;;;;;;;22.59;59.60;101326.75;5074364;28;20059;-23
2022/06/12 07:54:12;;;;;;;3.92;2.83;;;;;;;22.68;59.55;101318.19;5081959;28;20023;-23
2022/06/12 07:56:39;;;;;;;4.78;2.90;;;;;;;22.76;59.48;101306.19;5059717;28;20499;-23
2022/06/12 07:59:06;;;;;;;3.45;3.08;;;;;;;22.90;58.85;101308.16;5076049;28;20040;-23
2022/06/12 08:01:31;;;;;;;5.75;3.30;;;;;;;23.02;59.17;101309.38;5076440;28;20455;-23
2022/06/12 08:03:57;;;;;;;4.13;3.40;;;;;;;23.11;58.86;101311.56;5074605;28;20059;-23
2022/06/12 08:06:23;;;;;;;4.25;3.03;;;;;;;23.22;58.45;101307.44;5080806;28;20387;-23
2022/06/12 08:08:48;;;;;;;3.30;2.78;;;;;;;23.35;58.37;101307.69;5080614;28;20024;-23
2022/06/12 08:11:14;;;;;;;3.80;3.08;;;;;;;23.45;58.05;101304.44;5077405;28;20074;-23
2022/06/12 08:13:39;;;;;;;3.45;2.78;;;;;;;23.56;57.93;101308.38;5085294;28;20108;-23
2022/06/12 08:16:05;;;;;;;3.67;3.13;;;;;;;23.68;58.03;101298.78;5080202;28;20067;-23
2022/06/12 08:18:31;;;;;;;3.88;2.72;;;;;;;23.77;57.66;101305.47;5050119;28;20160;-23
2022/06/12 08:21:07;;;;;;;3.40;2.80;;;;;;;23.91;57.81;101304.72;5064229;28;20046;-23
2022/06/12 08:23:43;;;;;;;3.08;2.40;;;;;;;24.00;57.01;101306.88;5047918;28;20084;-23
2022/06/12 08:26:13;;;;;;;5.07;3.17;;;;;;;24.11;56.91;101310.78;5081614;28;20051;-23
2022/06/12 08:28:46;;;;;;;4.68;2.70;;;;;;;24.18;56.50;101307.69;5081412;28;20487;-23
2022/06/12 08:31:16;;;;;;;4.03;2.92;;;;;;;24.25;55.94;101308.22;5079853;28;20040;-23
2022/06/12 08:33:43;;;;;;;4.17;2.83;;;;;;;24.36;56.01;101304.91;5082506;28;20550;-23
2022/06/12 08:36:11;;;;;;;3.25;2.80;;;;;;;24.46;56.26;101295.31;5082350;28;20070;-23
2022/06/12 08:38:36;;;;;;;3.63;2.70;;;;;;;24.57;55.46;101309.97;5063917;28;20028;-23
2022/06/12 08:41:30;;;;;;;3.03;2.67;;;;;;;24.71;55.48;101304.66;5079698;28;20387;-23
2022/06/12 08:44:10;;;;;;;4.07;2.85;;;;;;;24.81;55.73;101306.81;5042048;28;20020;-23
2022/06/12 08:46:49;;;;;;;3.67;2.40;;;;;;;24.88;54.79;101304.66;5079633;28;20028;-23
2022/06/12 08:49:41;;;;;;;2.88;2.55;;;;;;;25.02;55.04;101306.50;5078460;28;20024;-23
2022/06/12 08:52:22;;;;;;;2.67;2.45;;;;;;;25.09;54.75;101308.75;5065994;28;20539;-23
2022/06/12 08:54:50;;;;;;;3.60;2.47;;;;;;;25.19;54.48;101303.66;5064197;28;20111;-23
2022/06/12 08:57:20;;;;;;;4.28;2.40;;;;;;;25.29;54.28;101297.69;5077138;28;20024;-23
2022/06/12 08:59:50;;;;;;;3.70;2.60;;;;;;;25.37;54.07;101296.25;5059800;28;20471;-23
2022/06/12 09:02:29;;;;;;;5.57;2.88;;;;;;;25.45;53.64;101305.69;5063707;28;20048;-23
2022/06/12 09:04:54;;;;;;;4.57;2.42;;;;;;;25.54;53.45;101304.25;5061532;28;20028;-23
2022/06/12 09:07:27;;;;;;;4.35;2.70;;;;;;;25.67;53.30;101302.53;5064774;28;20054;-23
2022/06/12 09:09:56;;;;;;;3.60;2.75;;;;;;;25.75;52.80;101299.38;5083314;28;20118;-23
2022/06/12 09:12:30;;;;;;;3.10;2.70;;;;;;;25.85;53.18;101302.34;5082317;28;20012;-23
2022/06/12 09:15:08;;;;;;;3.10;2.30;;;;;;;25.92;53.33;101306.38;5068992;28;20032;-23
2022/06/12 09:17:44;;;;;;;5.38;2.97;;;;;;;25.99;52.98;101296.03;5082321;28;20028;-23
2022/06/12 09:20:09;;;;;;;4.38;2.70;;;;;;;26.12;52.99;101290.69;5065145;28;20443;-23
2022/06/12 09:22:54;;;;;;;3.55;2.60;;;;;;;26.24;52.62;101298.00;5076460;28;20123;-23
2022/06/12 09:25:29;;;;;;;7.22;3.22;;;;;;;26.30;52.61;101282.38;5080787;28;20081;-23
2022/06/12 09:28:26;;;;;;;6.03;2.67;;;;;;;26.38;51.70;101288.16;5067682;28;20636;-23
2022/06/12 09:31:08;;;;;;;3.70;2.80;;;;;;;26.44;51.29;101292.28;5058063;28;20130;-23
2022/06/12 09:33:52;;;;;;;6.00;2.50;;;;;;;26.59;52.02;101293.06;5059950;28;20051;-23
2022/06/12 09:36:33;;;;;;;2.92;2.38;;;;;;;26.72;51.16;101276.88;5078656;28;20028;-23
2022/06/12 09:39:03;;;;;;;2.97;2.30;;;;;;;26.84;51.17;101272.47;5083617;28;20020;-24
2022/06/12 09:41:44;;;;;;;3.67;2.60;;;;;;;26.94;52.34;101280.81;5085833;28;20484;-23
2022/06/12 09:44:12;;;;;;;;;;;;;;;27.09;51.95;101284.31;5082523;28;20058;-23
2022/06/12 09:47:09;;;;;;;5.00;2.90;;;;;;;27.17;50.81;101289.19;5079156;28;19968;-23
2022/06/12 09:49:38;;;;;;;4.18;2.33;;;;;;;27.15;49.81;101278.47;5082375;28;20041;-23
2022/06/12 09:52:45;;;;;;;2.45;2.25;;;;;;;27.18;50.17;101277.38;5078179;28;20111;-23
2022/06/12 09:55:29;;;;;;;2.35;2.15;;;;;;;27.23;49.91;101286.91;5080469;28;20107;-23
2022/06/12 09:57:59;;;;;;;3.00;2.30;;;;;;;27.29;49.81;101269.38;5079812;28;20023;-23
2022/06/12 10:00:36;;;;;;;5.90;2.72;;;;;;;27.37;49.70;101266.13;5078671;28;20494;-23
2022/06/12 10:03:09;;;;;;;4.40;2.78;;;;;;;27.49;49.73;101256.25;5060859;28;20751;-23
2022/06/12 10:05:43;;;;;;;4.20;2.65;;;;;;;27.59;49.61;101269.97;5086914;28;20035;-23
2022/06/12 10:08:18;;;;;;;4.38;2.90;;;;;;;27.64;49.27;101268.69;5065567;28;20394;-23
2022/06/12 10:10:49;;;;;;;4.47;2.90;;;;;;;27.67;49.01;101256.78;5080019;28;20516;-23
2022/06/12 10:13:20;;;;;;;5.43;2.83;;;;;;;27.78;48.58;101251.44;5078775;28;20016;-23
2022/06/12 10:15:51;;;;;;;3.63;2.50;;;;;;;27.83;48.74;101250.22;5079994;28;20031;-23
2022/06/12 10:18:22;;;;;;;4.43;2.55;;;;;;;27.89;48.88;101233.53;5078417;28;20491;-23
2022/06/12 10:20:54;;;;;;;3.63;2.40;;;;;;;27.97;48.80;101246.50;5052483;28;20179;-23
2022/06/12 10:23:21;;;;;;;4.47;2.85;;;;;;;27.99;48.07;101241.81;5080498;28;20021;-23
2022/06/12 10:25:51;;;;;;;3.83;2.92;;;;;;;28.08;48.12;101248.41;5068614;28;20498;-23
2022/06/12 10:28:16;;;;;;;3.97;2.25;;;;;;;28.05;47.97;101244.09;5072880;28;20084;-23
2022/06/12 10:30:44;;;;;;;3.20;2.90;;;;;;;28.05;47.82;101254.94;5085382;28;20107;-23
2022/06/12 10:33:23;;;;;;;3.00;2.47;;;;;;;28.07;47.58;101243.97;5062715;28;20407;-22
2022/06/12 10:35:58;;;;;;;2.83;2.60;;;;;;;28.14;47.85;101234.41;5082418;28;20119;-22
2022/06/12 10:38:27;;;;;;;2.75;2.38;;;;;;;28.14;47.46;101228.97;5082639;28;20099;-22
2022/06/12 10:40:56;;;;;;;4.72;2.70;;;;;;;28.17;47.73;101231.44;5047351;28;20115;-23
2022/06/12 10:43:32;;;;;;;3.53;2.40;;;;;;;28.23;47.47;101214.72;5077761;28;20051;-22
2022/06/12 10:46:16;;;;;;;5.50;2.65;;;;;;;28.33;47.61;101220.34;5060123;28;20044;-23
2022/06/12 10:48:43;;;;;;;3.17;2.78;;;;;;;28.40;47.27;101220.72;5084009;28;20024;-22
2022/06/12 10:51:23;;;;;;;4.47;2.67;;;;;;;28.48;47.37;101215.59;5060856;28;20446;-22
2022/06/12 10:53:55;;;;;;;;;;;;;;;28.57;46.99;101211.28;5076738;28;20112;-23
2022/06/12 10:56:41;;;;;;;2.33;2.13;;;;;;;28.67;46.43;101204.16;5084342;28;19923;-23
2022/06/12 10:59:29;;;;;;;4.07;2.35;;;;;;;28.76;46.30;101188.13;5070918;28;20166;-22
2022/06/12 11:02:00;;;;;;;3.67;2.65;;;;;;;28.81;46.41;101196.78;5081868;28;20099;-22
2022/06/12 11:04:33;;;;;;;4.60;2.72;;;;;;;28.94;46.89;101193.97;5082104;28;20032;-22
2022/06/12 11:07:07;;;;;;;6.97;3.17;;;;;;;29.09;46.02;101202.75;5062884;28;20384;-22
2022/06/12 11:09:48;;;;;;;4.57;2.72;;;;;;;29.10;45.66;101190.91;5081662;28;20063;-23
2022/06/12 11:12:29;;;;;;;2.95;2.20;;;;;;;29.16;45.60;101192.28;5062775;28;20024;-23
2022/06/12 11:15:33;;;;;;;3.85;2.75;;;;;;;29.22;45.52;101183.63;5084094;28;20032;-23
2022/06/12 11:18:24;;;;;;;3.25;2.58;;;;;;;29.22;45.06;101183.63;4998792;28;20058;-23
2022/06/12 11:21:13;;;;;;;5.15;2.60;;;;;;;29.30;45.01;101181.16;4997193;28;20108;-22
2022/06/12 11:24:06;;;;;;;3.92;2.53;;;;;;;29.32;44.77;101173.75;5054034;28;20089;-22
2022/06/12 11:26:52;;;;;;;3.65;2.40;;;;;;;29.31;44.47;101177.44;5080693;28;20031;-23
2022/06/12 11:29:48;;;;;;;3.13;2.25;;;;;;;29.28;44.57;101179.56;5064890;28;20042;-23
2022/06/12 11:32:22;;;;;;;4.20;2.13;;;;;;;29.26;44.45;101176.97;5085631;28;20112;-22
2022/06/12 11:35:00;;;;;;;3.47;2.03;;;;;;;29.23;44.50;101174.50;5081962;28;20040;-23
2022/06/12 11:37:45;;;;;;;2.50;2.30;;;;;;;29.22;43.94;101166.47;5083995;28;20012;-23
2022/06/12 11:40:38;;;;;;;3.55;2.30;;;;;;;29.24;44.13;101162.63;5082928;28;20051;-23
2022/06/12 11:43:04;;;;;;;5.18;2.40;;;;;;;29.29;43.72;101163.13;5080529;28;20031;-23
2022/06/12 11:45:47;;;;;;;4.03;2.53;;;;;;;29.40;43.64;101161.38;5080780;28;20100;-23
2022/06/12 11:48:24;;;;;;;3.72;2.38;;;;;;;29.51;43.83;101155.06;5066967;28;21367;-23
2022/06/12 11:51:05;;;;;;;3.13;2.15;;;;;;;29.62;43.27;101157.81;5085339;28;20084;-23
2022/06/12 11:53:36;;;;;;;2.83;2.33;;;;;;;29.62;44.10;101151.50;5065880;28;20486;-23
2022/06/12 11:56:05;;;;;;;4.38;2.70;;;;;;;29.59;43.11;101144.47;5085003;28;20055;-23
2022/06/12 11:59:05;;;;;;;4.55;2.42;;;;;;;29.67;43.50;101147.41;5067952;28;20039;-23
2022/06/12 12:01:50;;;;;;;2.17;2.00;;;;;;;29.71;42.93;101139.88;5080190;28;20369;-23